createdAt,value
2019-01-04T00:02:40.968Z,33.13
2019-01-04T00:07:59.843Z,28.17
2019-01-04T00:13:18.375Z,42.20
2019-01-04T00:18:37.000Z,47.70
2019-01-04T00:23:55.536Z,45.07
2019-01-04T00:29:14.076Z,42.07
2019-01-04T00:34:32.697Z,47.30
2019-01-04T00:39:51.242Z,49.73
2019-01-04T00:45:10.123Z,44.08
2019-01-04T00:50:28.927Z,58.87
2019-01-04T00:56:26.255Z,61.33
2019-01-04T01:02:24.701Z,73.60
2019-01-04T01:08:21.752Z,68.10
2019-01-04T01:14:20.205Z,72.60
2019-01-04T01:20:17.254Z,66.93
2019-01-04T01:26:14.305Z,72.23
2019-01-04T01:32:11.374Z,70.77
2019-01-04T01:38:09.768Z,67.53
2019-01-04T01:44:06.825Z,75.03
2019-01-04T01:50:03.897Z,84.83
2019-01-04T01:55:22.376Z,72.97
2019-01-04T02:11:42.001Z,92.47
2019-01-04T02:22:30.875Z,95.00
2019-01-04T02:27:49.348Z,99.73
2019-01-04T02:33:07.824Z,102.53
2019-01-04T02:43:56.954Z,83.80
2019-01-04T02:49:15.491Z,89.60
2019-01-04T02:54:33.973Z,89.07
2019-01-04T02:59:52.635Z,81.47
2019-01-04T03:05:11.108Z,71.70
2019-01-04T03:10:29.641Z,60.73
2019-01-04T03:15:48.171Z,72.47
2019-01-04T03:21:06.635Z,61.73
2019-01-04T03:26:25.092Z,55.07
2019-01-04T03:31:43.622Z,57.80
2019-01-04T03:37:02.118Z,53.77
2019-01-04T03:42:20.729Z,53.57
2019-01-04T03:47:39.214Z,54.13
2019-01-04T03:52:57.759Z,53.83
2019-01-04T03:58:16.218Z,50.60
2019-01-04T04:03:34.773Z,45.03
2019-01-04T04:08:53.314Z,57.90
2019-01-04T04:14:11.781Z,53.73
2019-01-04T04:19:30.254Z,62.23
2019-01-04T04:24:48.721Z,69.13
2019-01-04T04:30:26.544Z,80.40
2019-01-04T04:35:45.395Z,86.23
2019-01-04T04:41:03.941Z,83.83
2019-01-04T04:46:22.401Z,80.30
2019-01-04T04:57:11.328Z,87.83
2019-01-04T05:02:29.872Z,78.33
2019-01-04T05:07:48.427Z,95.53
2019-01-04T05:13:06.906Z,96.40
2019-01-04T05:18:25.459Z,89.63
2019-01-04T05:23:43.998Z,79.53
2019-01-04T05:29:02.694Z,87.73
2019-01-04T05:34:21.470Z,80.07
2019-01-04T05:39:39.939Z,79.80
2019-01-04T05:44:58.407Z,86.43
2019-01-04T05:50:16.944Z,93.13
2019-01-04T05:55:35.476Z,82.03
2019-01-04T06:00:54.196Z,94.23
2019-01-04T06:06:12.732Z,92.37
2019-01-04T06:11:31.414Z,82.43
2019-01-04T06:16:49.890Z,92.60
2019-01-04T06:22:08.727Z,84.80
2019-01-04T06:27:27.185Z,65.07
2019-01-04T06:32:45.737Z,79.43
2019-01-04T06:38:04.263Z,72.03
2019-01-04T06:43:22.746Z,68.28
2019-01-04T06:48:41.218Z,68.83
2019-01-04T06:53:59.692Z,72.83
2019-01-04T06:59:18.166Z,65.80
2019-01-04T07:04:36.674Z,59.27
2019-01-04T07:09:55.103Z,63.20
2019-01-04T07:15:13.653Z,50.73
2019-01-04T07:20:32.197Z,49.07
2019-01-04T07:25:50.740Z,54.70
2019-01-04T07:31:09.270Z,50.17
2019-01-04T07:36:27.743Z,56.23
2019-01-04T07:47:18.663Z,62.17
2019-01-04T07:52:37.276Z,75.70
2019-01-04T07:57:55.831Z,76.03
2019-01-04T08:03:14.364Z,66.27
2019-01-04T08:14:05.420Z,62.63
2019-01-04T08:19:23.894Z,51.70
2019-01-04T08:24:42.366Z,51.97
2019-01-04T08:30:00.840Z,55.03
2019-01-04T08:35:19.390Z,53.10
2019-01-04T08:40:37.864Z,60.60
2019-01-04T08:45:56.582Z,61.00
2019-01-04T08:51:15.129Z,77.37
2019-01-04T08:56:33.664Z,66.67
2019-01-04T09:01:52.138Z,70.33
2019-01-04T09:12:39.520Z,75.93
2019-01-04T09:17:58.060Z,86.10
2019-01-04T09:23:16.677Z,81.43
2019-01-04T09:28:35.383Z,75.50
2019-01-04T09:33:54.204Z,70.67
2019-01-04T09:39:12.744Z,82.23
2019-01-04T09:44:31.289Z,80.97
2019-01-04T09:49:49.835Z,86.83
2019-01-04T09:55:08.438Z,76.23
2019-01-04T10:00:26.943Z,84.80
2019-01-04T10:05:45.487Z,68.37
2019-01-04T10:11:04.109Z,57.57
2019-01-04T10:16:22.590Z,71.40
2019-01-04T10:21:41.090Z,76.03
2019-01-04T10:26:59.642Z,74.92
2019-01-04T10:32:18.466Z,70.27
2019-01-04T10:37:37.016Z,73.70
2019-01-04T10:42:55.658Z,72.70
2019-01-04T10:48:14.202Z,69.87
2019-01-04T10:53:32.679Z,70.07
2019-01-04T10:58:51.369Z,66.70
2019-01-04T11:04:10.223Z,65.10
2019-01-04T11:09:28.843Z,49.35
2019-01-04T11:14:47.450Z,40.27
2019-01-04T11:20:09.482Z,43.87
2019-01-04T11:25:55.175Z,42.60
2019-01-04T11:31:25.466Z,51.27
2019-01-04T11:37:03.231Z,51.93
2019-01-04T11:42:51.767Z,50.63
2019-01-04T11:48:13.548Z,46.20
2019-01-04T11:53:32.092Z,46.77
2019-01-04T11:58:51.051Z,41.13
2019-01-04T12:04:09.531Z,38.60
2019-01-04T12:09:28.091Z,34.17
2019-01-04T12:14:46.632Z,35.00
2019-01-04T12:20:07.470Z,52.93
2019-01-04T12:25:26.019Z,51.57
2019-01-04T12:30:44.556Z,52.13
2019-01-04T12:36:03.024Z,51.33
2019-01-04T12:41:21.506Z,58.33
2019-01-04T12:46:40.106Z,52.67
2019-01-04T12:51:58.602Z,54.03
2019-01-04T12:57:17.056Z,44.20
2019-01-04T13:02:36.014Z,42.33
2019-01-04T13:07:54.525Z,34.90
2019-01-04T13:13:13.215Z,33.87
2019-01-04T13:18:31.761Z,32.30
2019-01-04T13:23:50.294Z,32.23
2019-01-04T13:29:08.870Z,39.97
2019-01-04T13:34:27.409Z,39.87
2019-01-04T13:39:45.953Z,40.73
2019-01-04T13:45:05.666Z,44.00
2019-01-04T13:50:24.279Z,54.23
2019-01-04T13:55:43.168Z,52.07
2019-01-04T14:01:01.655Z,56.30
2019-01-04T14:06:20.125Z,66.17
2019-01-04T14:11:38.690Z,66.50
2019-01-04T14:16:57.384Z,67.73
2019-01-04T14:22:15.876Z,67.63
2019-01-04T14:27:35.345Z,72.53
2019-01-04T14:32:53.820Z,74.87
2019-01-04T14:38:12.292Z,72.87
2019-01-04T14:43:30.773Z,79.37
2019-01-04T14:48:49.323Z,72.77
2019-01-04T14:54:07.935Z,73.20
2019-01-04T14:59:26.427Z,66.53
2019-01-04T15:04:44.971Z,57.40
2019-01-04T15:10:03.983Z,61.67
2019-01-04T15:15:22.776Z,55.78
2019-01-04T15:20:41.336Z,56.67
2019-01-04T15:25:59.952Z,58.90
2019-01-04T15:31:18.496Z,61.10
2019-01-04T15:36:36.979Z,58.70
2019-01-04T15:41:55.525Z,64.17
2019-01-04T15:47:14.005Z,58.57
2019-01-04T15:52:32.544Z,64.93
2019-01-04T15:57:51.036Z,63.43
2019-01-04T16:03:09.498Z,70.63
2019-01-04T16:08:28.059Z,65.67
2019-01-04T16:13:46.593Z,69.07
2019-01-04T16:19:05.199Z,79.50
2019-01-04T16:24:23.744Z,77.07
2019-01-04T16:35:38.310Z,77.30
2019-01-04T16:40:56.916Z,81.77
2019-01-04T16:46:15.448Z,76.57
2019-01-04T16:51:34.045Z,82.40
2019-01-04T16:56:52.603Z,84.27
2019-01-04T17:02:11.651Z,86.37
2019-01-04T17:07:30.199Z,90.00
2019-01-04T17:12:48.797Z,103.80
2019-01-04T17:18:07.341Z,102.53
2019-01-04T17:23:25.906Z,106.93
2019-01-04T17:28:44.369Z,121.00
2019-01-04T17:34:02.995Z,136.00
2019-01-04T17:39:21.757Z,123.47
2019-01-04T17:44:40.314Z,131.33
2019-01-04T17:49:58.806Z,140.27
2019-01-04T17:55:17.596Z,136.95
2019-01-04T18:00:36.063Z,141.93
2019-01-04T18:05:54.545Z,143.30
2019-01-04T18:11:13.028Z,138.03
2019-01-04T18:16:31.612Z,141.10
2019-01-04T18:21:50.102Z,147.25
2019-01-04T18:27:08.660Z,147.07
2019-01-04T18:32:27.202Z,128.73
2019-01-04T18:37:45.992Z,142.83
2019-01-04T18:43:04.916Z,146.10
2019-01-04T18:48:23.477Z,157.40
2019-01-04T18:53:42.046Z,149.77
2019-01-04T18:59:00.844Z,149.03
2019-01-04T19:04:19.320Z,172.33
2019-01-04T19:09:37.805Z,171.72
2019-01-04T19:14:56.347Z,176.03
2019-01-04T19:20:14.896Z,157.62
2019-01-04T19:25:33.399Z,166.97
2019-01-04T19:30:51.932Z,164.90
2019-01-04T19:36:10.472Z,189.43
2019-01-04T19:41:28.945Z,204.07
2019-01-04T19:46:47.589Z,168.20
2019-01-04T19:52:06.434Z,180.23
2019-01-04T19:57:24.922Z,180.40
2019-01-04T20:02:43.715Z,195.73
2019-01-04T20:08:25.797Z,164.03
2019-01-04T20:14:26.524Z,145.80
2019-01-04T20:19:53.596Z,131.17
2019-01-04T20:25:22.769Z,108.78
2019-01-04T20:30:55.122Z,136.37
2019-01-04T20:36:31.525Z,114.35
2019-01-04T20:42:07.532Z,127.50
2019-01-04T20:47:43.064Z,118.43
2019-01-04T20:53:18.595Z,127.70
2019-01-04T20:58:55.263Z,124.87
2019-01-04T21:04:15.467Z,118.67
2019-01-04T21:09:35.930Z,107.43
2019-01-04T21:14:58.776Z,116.70
2019-01-04T21:20:21.692Z,113.03
2019-01-04T21:25:41.797Z,93.27
2019-01-04T21:31:17.883Z,93.30
2019-01-04T21:36:54.192Z,94.10
2019-01-04T21:42:30.481Z,92.23
2019-01-04T21:47:50.702Z,89.87
2019-01-04T21:53:27.092Z,83.63
2019-01-04T21:58:47.270Z,83.33
2019-01-04T22:04:13.181Z,82.60
2019-01-04T22:09:45.183Z,94.93
2019-01-04T22:15:17.706Z,91.07
2019-01-04T22:20:49.936Z,100.43
2019-01-04T22:26:26.709Z,116.80
2019-01-04T22:32:03.540Z,110.10
2019-01-04T22:37:38.579Z,104.67
2019-01-04T22:43:01.594Z,106.53
2019-01-04T22:48:21.757Z,110.43
2019-01-04T22:53:50.973Z,112.10
2019-01-04T22:59:16.659Z,113.93
2019-01-04T23:04:54.553Z,110.27
2019-01-04T23:10:14.909Z,115.32
2019-01-04T23:15:35.016Z,115.67
2019-01-04T23:20:55.210Z,134.30
2019-01-04T23:26:25.240Z,151.60
2019-01-04T23:32:03.787Z,142.83
2019-01-04T23:37:26.902Z,160.30
2019-01-04T23:43:02.326Z,150.67
2019-01-04T23:48:38.689Z,153.80
2019-01-04T23:54:05.248Z,154.93
2019-01-04T23:59:33.923Z,171.87
